Time;durP1;ratioP1;P1;durP2;ratioP2;P2;SDS_P1;SDS_P2;PMS_P1;PMS_P2;Temp;Humidity;BMP_temperature;BMP_pressure;BME280_temperature;BME280_humidity;BME280_pressure;Samples;Min_cycle;Max_cycle;Signal;HPM_P1;HPM_P2
2023/04/03 00:00:34;;;;;;;3.50;0.98;;;;;;;0.66;100.00;103204.34;10335803;28;20034;-77
2023/04/03 00:05:35;;;;;;;2.17;0.63;;;;;;;0.67;100.00;103201.50;10357592;28;20042;-77
2023/04/03 00:10:36;;;;;;;3.10;1.15;;;;;;;0.66;100.00;103199.78;10342156;28;20115;-77
2023/04/03 00:15:36;;;;;;;11.25;1.60;;;;;;;0.60;100.00;103201.19;10341518;28;20044;-78
2023/04/03 00:20:37;;;;;;;2.53;0.65;;;;;;;0.58;100.00;103216.72;10357572;28;20061;-77
2023/04/03 00:25:37;;;;;;;6.32;1.05;;;;;;;0.48;100.00;103202.22;10364461;28;20084;-78
2023/04/03 00:30:38;;;;;;;2.10;0.63;;;;;;;0.40;100.00;103191.19;10366609;28;20060;-77
2023/04/03 00:35:39;;;;;;;3.28;0.77;;;;;;;0.43;100.00;103212.59;10397226;28;20029;-78
2023/04/03 00:40:43;;;;;;;4.25;0.90;;;;;;;0.35;100.00;103206.94;10365600;28;20165;-76
2023/04/03 00:45:45;;;;;;;1.90;0.80;;;;;;;0.36;100.00;103214.97;10382181;28;20057;-77
2023/04/03 00:50:46;;;;;;;3.70;0.90;;;;;;;0.32;100.00;103229.75;10381182;28;20037;-78
2023/04/03 00:55:47;;;;;;;5.50;1.57;;;;;;;0.17;100.00;103218.34;10364570;28;20030;-78
2023/04/03 01:00:53;;;;;;;4.70;0.70;;;;;;;0.25;100.00;103241.22;10360515;28;20462;-77
2023/04/03 01:05:54;;;;;;;2.43;0.73;;;;;;;0.20;100.00;103237.03;10323976;28;20382;-78
2023/04/03 01:10:55;;;;;;;4.10;0.95;;;;;;;0.17;100.00;103241.88;10359055;28;20038;-77
2023/04/03 01:15:55;;;;;;;4.70;0.90;;;;;;;0.05;100.00;103241.03;10338868;28;20042;-78
2023/04/03 01:21:24;;;;;;;2.13;0.80;;;;;;;0.08;100.00;103246.19;10339415;28;20038;-78
2023/04/03 01:26:25;;;;;;;2.70;0.80;;;;;;;-0.03;100.00;103229.97;10372507;28;20042;-78
2023/04/03 01:31:45;;;;;;;4.50;1.08;;;;;;;0.05;100.00;103246.47;10337052;28;20045;-78
2023/04/03 01:36:46;;;;;;;3.40;1.13;;;;;;;-0.03;100.00;103257.06;10354943;28;20042;-78
2023/04/03 01:41:46;;;;;;;6.97;1.27;;;;;;;-0.16;100.00;103242.81;10354671;28;20060;-78
2023/04/03 01:46:47;;;;;;;2.13;0.93;;;;;;;-0.25;100.00;103236.28;10338759;28;20038;-78
2023/04/03 01:51:48;;;;;;;6.47;1.23;;;;;;;-0.24;100.00;103249.69;10339835;28;20026;-78
2023/04/03 01:56:48;;;;;;;4.32;1.65;;;;;;;-0.36;100.00;103231.75;10354345;28;20058;-77
2023/04/03 02:01:49;;;;;;;2.67;1.45;;;;;;;-0.37;100.00;103243.56;10371512;28;20041;-77
2023/04/03 02:06:49;;;;;;;5.85;1.85;;;;;;;-0.39;100.00;103245.53;10378123;28;20060;-77
2023/04/03 02:11:50;;;;;;;2.92;1.02;;;;;;;-0.41;100.00;103263.75;10378050;28;20061;-77
2023/04/03 02:16:50;;;;;;;5.82;1.55;;;;;;;-0.44;100.00;103266.69;10411393;28;20049;-72
2023/04/03 02:21:51;;;;;;;3.78;1.25;;;;;;;-0.63;100.00;103256.47;10360739;28;20065;-76
2023/04/03 02:26:51;;;;;;;3.17;1.15;;;;;;;-0.65;100.00;103264.69;10368628;28;20092;-77
2023/04/03 02:31:52;;;;;;;4.55;1.40;;;;;;;-0.72;100.00;103270.75;10352945;28;20030;-77
2023/04/03 02:36:52;;;;;;;4.00;1.40;;;;;;;-0.92;100.00;103259.63;10337143;28;20034;-77
2023/04/03 02:41:53;;;;;;;3.72;1.40;;;;;;;-0.98;100.00;103280.88;10336340;28;20038;-76
2023/04/03 02:46:53;;;;;;;3.80;1.52;;;;;;;-1.16;100.00;103264.25;10338203;28;20034;-77
2023/04/03 02:51:54;;;;;;;3.28;1.35;;;;;;;-1.40;100.00;103258.88;10394415;28;20044;-76
2023/04/03 02:56:54;;;;;;;5.20;1.50;;;;;;;-1.45;100.00;103287.13;10393316;28;20038;-76
2023/04/03 03:01:55;;;;;;;5.07;1.60;;;;;;;-1.44;100.00;103283.44;10377403;28;20045;-76
2023/04/03 03:06:56;;;;;;;6.10;1.60;;;;;;;-1.38;100.00;103279.41;10360616;28;20067;-76
2023/04/03 03:11:56;;;;;;;5.53;1.73;;;;;;;-1.31;100.00;103290.59;10392846;28;20454;-76
2023/04/03 03:16:57;;;;;;;3.40;1.67;;;;;;;-1.31;100.00;103285.19;10374711;28;20046;-76
2023/04/03 03:21:57;;;;;;;2.42;1.60;;;;;;;-1.30;100.00;103295.00;10336849;28;20034;-76
2023/04/03 03:26:58;;;;;;;4.40;1.90;;;;;;;-1.32;100.00;103297.00;10336355;28;20038;-75
2023/04/03 03:31:58;;;;;;;1.93;1.20;;;;;;;-1.35;100.00;103316.13;10351768;28;20034;-75
2023/04/03 03:36:59;;;;;;;9.80;2.75;;;;;;;-1.54;100.00;103289.66;10352972;28;20064;-76
2023/04/03 03:41:59;;;;;;;6.57;1.90;;;;;;;-1.40;100.00;103315.63;10326931;28;20038;-76
2023/04/03 03:47:00;;;;;;;4.63;1.70;;;;;;;-1.43;100.00;103319.41;10338644;28;20053;-75
2023/04/03 03:52:01;;;;;;;8.32;2.47;;;;;;;-1.39;100.00;103325.44;10343740;28;20041;-76
2023/04/03 03:57:01;;;;;;;5.50;2.40;;;;;;;-1.47;100.00;103324.19;10342721;28;20026;-76
2023/04/03 04:02:02;;;;;;;11.63;3.40;;;;;;;-1.44;100.00;103326.66;10342389;28;20465;-76
2023/04/03 04:07:02;;;;;;;6.20;2.37;;;;;;;-1.48;100.00;103317.06;10374886;28;20053;-76
2023/04/03 04:12:03;;;;;;;9.73;3.20;;;;;;;-1.49;100.00;103328.84;10354220;28;20052;-76
2023/04/03 04:17:04;;;;;;;11.17;4.23;;;;;;;-1.56;100.00;103318.63;10387905;28;20056;-75
2023/04/03 04:22:04;;;;;;;4.60;2.10;;;;;;;-1.58;100.00;103324.13;10342294;28;20038;-76
2023/04/03 04:27:05;;;;;;;6.57;2.20;;;;;;;-1.56;100.00;103334.81;10325204;28;20096;-75
2023/04/03 04:32:05;;;;;;;9.60;2.88;;;;;;;-1.59;100.00;103341.31;10325343;28;20046;-71
2023/04/03 04:37:05;;;;;;;10.07;2.38;;;;;;;-1.60;100.00;103350.38;10325253;28;20048;-76
2023/04/03 04:42:07;;;;;;;7.10;2.10;;;;;;;-1.62;100.00;103346.94;10357001;28;20034;-76
2023/04/03 04:47:07;;;;;;;6.60;2.37;;;;;;;-1.62;100.00;103349.63;10361500;28;20069;-75
2023/04/03 04:52:07;;;;;;;5.30;2.27;;;;;;;-1.69;100.00;103340.28;10355774;28;20034;-76
2023/04/03 04:57:08;;;;;;;8.45;2.83;;;;;;;-1.65;100.00;103357.97;10339605;28;20038;-76
2023/04/03 05:02:09;;;;;;;9.18;2.00;;;;;;;-1.67;100.00;103357.22;10338631;28;20057;-76
2023/04/03 05:07:09;;;;;;;3.90;2.13;;;;;;;-1.74;100.00;103354.09;10395787;28;20066;-76
2023/04/03 05:12:10;;;;;;;9.02;2.80;;;;;;;-1.68;100.00;103363.59;10358390;28;20044;-76
2023/04/03 05:17:10;;;;;;;11.37;2.83;;;;;;;-1.73;100.00;103357.69;10356734;28;20034;-73
2023/04/03 05:22:11;;;;;;;4.60;1.88;;;;;;;-1.67;100.00;103370.72;10331087;28;20046;-76
2023/04/03 05:27:11;;;;;;;9.63;2.53;;;;;;;-1.70;100.00;103376.34;10370859;28;20076;-77
2023/04/03 05:32:12;;;;;;;10.82;2.95;;;;;;;-1.65;100.00;103379.59;10355490;28;20489;-77
2023/04/03 05:37:12;;;;;;;11.37;2.90;;;;;;;-1.58;100.00;103386.25;10322650;28;20037;-76
2023/04/03 05:42:13;;;;;;;8.23;2.88;;;;;;;-1.50;100.00;103385.69;10354782;28;20034;-77
2023/04/03 05:47:14;;;;;;;9.77;3.13;;;;;;;-1.45;100.00;103384.41;10338755;28;20045;-76
2023/04/03 05:52:21;;;;;;;7.20;2.83;;;;;;;-1.27;100.00;103397.50;10338078;28;20057;-76
2023/04/03 05:57:21;;;;;;;11.55;2.88;;;;;;;-1.22;100.00;103387.19;10338408;28;20093;-76
2023/04/03 06:02:23;;;;;;;7.32;2.60;;;;;;;-1.05;100.00;103389.50;10338572;28;20038;-77
2023/04/03 06:07:26;;;;;;;12.93;2.83;;;;;;;-1.08;100.00;103395.13;10338218;28;20061;-76
2023/04/03 06:12:29;;;;;;;5.43;2.72;;;;;;;-0.95;100.00;103399.63;10322965;28;20041;-76
2023/04/03 06:17:30;;;;;;;10.23;3.73;;;;;;;-0.72;100.00;103404.16;10322819;28;20040;-76
2023/04/03 06:22:30;;;;;;;7.20;3.30;;;;;;;-0.26;100.00;103411.41;10338886;28;20038;-78
2023/04/03 06:27:31;;;;;;;9.77;3.53;;;;;;;0.14;100.00;103407.38;10360856;28;20426;-77
2023/04/03 06:32:31;;;;;;;7.40;2.25;;;;;;;0.46;100.00;103412.03;10394133;28;20113;-78
2023/04/03 06:37:32;;;;;;;6.03;1.92;;;;;;;0.79;100.00;103400.28;10377070;28;20064;-78
2023/04/03 06:42:33;;;;;;;9.65;2.80;;;;;;;1.13;100.00;103411.00;10377584;28;20051;-78
2023/04/03 06:47:33;;;;;;;4.78;2.15;;;;;;;1.23;100.00;103420.06;10362168;28;20038;-79
2023/04/03 06:52:34;;;;;;;5.22;2.13;;;;;;;1.38;100.00;103407.03;10351930;28;20041;-78
2023/04/03 06:57:34;;;;;;;10.57;2.38;;;;;;;1.67;100.00;103411.81;10376485;28;20053;-78
2023/04/03 07:02:35;;;;;;;9.90;2.35;;;;;;;1.91;100.00;103438.72;10357164;28;20069;-78
2023/04/03 07:07:35;;;;;;;9.32;2.38;;;;;;;1.89;100.00;103425.25;10403866;28;20038;-78
2023/04/03 07:12:36;;;;;;;6.43;2.30;;;;;;;2.04;100.00;103436.63;10345411;28;20109;-78
2023/04/03 07:17:36;;;;;;;7.82;2.30;;;;;;;2.10;100.00;103425.22;10346167;28;20043;-78
2023/04/03 07:22:37;;;;;;;7.47;2.45;;;;;;;2.18;100.00;103433.56;10371582;28;20049;-79
2023/04/03 07:27:37;;;;;;;4.32;2.25;;;;;;;2.34;100.00;103454.81;10379121;28;20121;-79
2023/04/03 07:32:38;;;;;;;8.27;3.60;;;;;;;2.36;100.00;103435.66;10345873;28;20037;-78
2023/04/03 07:37:38;;;;;;;6.95;2.10;;;;;;;2.65;100.00;103452.06;10355708;28;20099;-78
2023/04/03 07:42:39;;;;;;;8.68;2.20;;;;;;;2.80;100.00;103441.66;10359997;28;20042;-74
2023/04/03 07:47:39;;;;;;;4.72;2.30;;;;;;;2.82;100.00;103409.72;10373462;28;20041;-79
2023/04/03 07:52:40;;;;;;;7.93;2.40;;;;;;;3.11;100.00;103453.31;10361739;28;20052;-78
2023/04/03 07:57:41;;;;;;;7.68;2.00;;;;;;;3.21;100.00;103445.16;10342561;28;20037;-78
2023/04/03 08:02:41;;;;;;;5.47;2.00;;;;;;;3.30;100.00;103454.31;10358300;28;20160;-79
2023/04/03 08:07:42;;;;;;;5.25;2.17;;;;;;;3.33;100.00;103437.69;10325887;28;20042;-78
2023/04/03 08:12:46;;;;;;;8.00;1.83;;;;;;;3.40;100.00;103434.25;10343012;28;20034;-78
2023/04/03 08:17:46;;;;;;;6.30;2.20;;;;;;;3.54;100.00;103440.28;10359106;28;20034;-78
2023/04/03 08:22:47;;;;;;;5.25;1.38;;;;;;;3.67;100.00;103431.81;10338223;28;20077;-77
2023/04/03 08:27:47;;;;;;;6.60;1.48;;;;;;;3.69;100.00;103419.75;10373319;28;20034;-77
2023/04/03 08:32:48;;;;;;;5.68;1.52;;;;;;;3.83;100.00;103421.16;10358213;28;20030;-77
2023/04/03 08:37:48;;;;;;;6.63;1.20;;;;;;;4.05;100.00;103403.56;10338591;28;20034;-77
2023/04/03 08:43:16;;;;;;;4.30;1.52;;;;;;;4.32;100.00;103412.78;10359423;28;20083;-76
2023/04/03 08:48:22;;;;;;;3.58;1.08;;;;;;;4.61;100.00;103409.91;10339822;28;20045;-76
2023/04/03 08:53:26;;;;;;;4.47;1.00;;;;;;;5.09;100.00;103419.66;10341087;28;20151;-77
2023/04/03 08:58:32;;;;;;;3.47;0.95;;;;;;;5.22;100.00;103383.78;10340822;28;20109;-77
2023/04/03 09:03:38;;;;;;;7.40;1.40;;;;;;;5.56;100.00;103396.69;10379300;28;20038;-77
2023/04/03 09:09:10;;;;;;;3.97;1.07;;;;;;;5.77;100.00;103391.72;10344357;28;20045;-76
2023/04/03 09:14:29;;;;;;;6.60;1.13;;;;;;;5.91;100.00;103382.03;10371939;28;20046;-77
2023/04/03 09:19:32;;;;;;;4.32;1.08;;;;;;;5.98;100.00;103396.00;10356656;28;20030;-73
2023/04/03 09:24:33;;;;;;;3.22;1.20;;;;;;;5.30;100.00;103380.25;10356167;28;20509;-75
2023/04/03 09:29:35;;;;;;;4.25;0.80;;;;;;;5.13;100.00;103399.22;10339220;28;20049;-77
2023/04/03 09:34:36;;;;;;;4.22;0.90;;;;;;;5.09;100.00;103380.59;10339494;28;20042;-77
2023/04/03 09:39:53;;;;;;;2.85;0.70;;;;;;;5.29;100.00;103373.91;10337862;28;20084;-76
2023/04/03 09:45:04;;;;;;;4.75;1.25;;;;;;;5.47;100.00;103369.28;10364387;28;20042;-76
2023/04/03 09:50:18;;;;;;;4.85;1.23;;;;;;;5.82;100.00;103378.41;10362432;28;20071;-76
2023/04/03 09:55:29;;;;;;;3.00;0.70;;;;;;;6.07;93.72;103356.72;10394905;28;20077;-76
2023/04/03 10:00:37;;;;;;;2.70;0.95;;;;;;;6.23;91.77;103339.53;10396035;28;20030;-75
2023/04/03 10:05:39;;;;;;;1.65;0.50;;;;;;;6.59;94.13;103358.44;10361042;28;20059;-76
2023/04/03 10:10:41;;;;;;;1.52;0.70;;;;;;;6.92;87.91;103340.19;10357505;28;20847;-76
2023/04/03 10:15:44;;;;;;;3.05;0.70;;;;;;;7.23;86.75;103339.53;10336563;28;20046;-77
2023/04/03 10:20:47;;;;;;;1.83;0.45;;;;;;;7.52;85.88;103349.94;10337885;28;20054;-77
2023/04/03 10:26:12;;;;;;;1.42;0.50;;;;;;;7.84;80.84;103335.34;10338687;28;20034;-77
2023/04/03 10:31:45;;;;;;;1.48;0.73;;;;;;;8.04;78.57;103332.16;10336709;28;20502;-76
2023/04/03 10:36:58;;;;;;;2.03;0.90;;;;;;;8.28;77.93;103312.00;10346788;28;20042;-76
2023/04/03 10:42:12;;;;;;;2.78;0.60;;;;;;;8.56;74.75;103309.66;10319991;28;20050;-76
2023/04/03 10:47:31;;;;;;;1.85;0.57;;;;;;;8.79;75.35;103314.31;10369391;28;20037;-75
2023/04/03 10:52:34;;;;;;;0.50;0.38;;;;;;;9.04;72.28;103304.00;10405189;28;20124;-78
2023/04/03 10:57:35;;;;;;;0.73;0.40;;;;;;;9.22;68.21;103287.16;10409479;28;20100;-77
2023/04/03 11:03:06;;;;;;;4.85;1.85;;;;;;;9.18;65.82;103261.97;10393041;28;20084;-77
2023/04/03 11:08:34;;;;;;;1.73;0.82;;;;;;;9.43;68.46;103289.19;10364079;28;20042;-76
2023/04/03 11:13:42;;;;;;;2.60;1.42;;;;;;;9.46;66.46;103273.16;10356577;28;20129;-77
2023/04/03 11:18:58;;;;;;;3.40;1.13;;;;;;;9.81;66.31;103264.34;10339945;28;20125;-77
2023/04/03 11:23:58;;;;;;;2.27;1.03;;;;;;;10.04;64.31;103253.22;10373207;28;20037;-76
2023/04/03 11:29:05;;;;;;;1.30;0.60;;;;;;;10.21;64.53;103251.97;10371026;28;20069;-77
2023/04/03 11:34:27;;;;;;;1.23;0.57;;;;;;;10.09;64.74;103262.63;10386953;28;20048;-77
2023/04/03 11:39:30;;;;;;;3.22;0.73;;;;;;;10.29;63.94;103243.63;10383210;28;20053;-77
2023/04/03 11:44:36;;;;;;;3.60;0.65;;;;;;;10.49;62.05;103221.78;10371302;28;20053;-77
2023/04/03 11:49:59;;;;;;;3.65;0.65;;;;;;;10.85;60.37;103229.13;10335189;28;20053;-75
2023/04/03 11:55:00;;;;;;;3.67;0.77;;;;;;;10.68;60.29;103206.50;10369158;28;20192;-73
2023/04/03 12:00:01;;;;;;;4.70;0.68;;;;;;;11.08;61.22;103211.50;10341445;28;22553;-75
2023/04/03 12:05:26;;;;;;;1.73;0.73;;;;;;;11.90;59.02;103199.69;10343074;28;20076;-76
2023/04/03 12:10:26;;;;;;;2.67;0.68;;;;;;;12.63;59.22;103204.56;10358157;28;20099;-79
2023/04/03 12:15:47;;;;;;;3.03;0.68;;;;;;;13.72;57.46;103182.91;10341736;28;20131;-78
2023/04/03 12:20:51;;;;;;;2.80;0.85;;;;;;;14.40;51.75;103162.09;10372696;28;20228;-77
2023/04/03 12:25:51;;;;;;;3.08;0.75;;;;;;;14.90;52.23;103164.88;10359482;28;20069;-77
2023/04/03 12:30:52;;;;;;;1.65;0.60;;;;;;;15.09;48.50;103152.75;10325790;28;20165;-75
2023/04/03 12:36:02;;;;;;;2.53;0.50;;;;;;;14.18;46.13;103143.06;10341236;28;20053;-72
2023/04/03 12:41:18;;;;;;;3.75;0.70;;;;;;;14.00;46.06;103154.03;10341548;28;20030;-77
2023/04/03 12:46:19;;;;;;;2.05;0.57;;;;;;;13.55;45.03;103135.50;10356602;28;20101;-74
2023/04/03 12:51:43;;;;;;;1.85;0.80;;;;;;;13.36;48.30;103153.03;10359354;28;20037;-77
2023/04/03 12:56:43;;;;;;;2.13;0.70;;;;;;;14.27;47.37;103149.16;10397314;28;20046;-71
2023/04/03 13:01:44;;;;;;;2.72;0.50;;;;;;;15.26;49.69;103147.44;10365441;28;20491;-76
2023/04/03 13:06:45;;;;;;;2.53;0.70;;;;;;;15.86;47.99;103124.53;10380305;28;20061;-75
2023/04/03 13:11:45;;;;;;;1.75;0.55;;;;;;;16.13;47.90;103124.97;10379176;28;20068;-76
2023/04/03 13:16:55;;;;;;;1.20;0.60;;;;;;;16.18;45.25;103120.63;10364705;28;20049;-77
2023/04/03 13:22:03;;;;;;;0.90;0.55;;;;;;;16.36;44.78;103117.78;10365098;28;20072;-73
2023/04/03 13:27:06;;;;;;;1.70;0.50;;;;;;;16.70;43.38;103085.56;10371026;28;20042;-75
2023/04/03 13:32:06;;;;;;;1.85;0.70;;;;;;;17.50;41.67;103089.53;10340041;28;20041;-74
2023/04/03 13:37:11;;;;;;;1.20;0.50;;;;;;;17.10;42.11;103095.09;10338870;28;20026;-75
2023/04/03 13:42:16;;;;;;;2.05;0.80;;;;;;;17.37;40.48;103087.06;10368715;28;20110;-77
2023/04/03 13:47:17;;;;;;;3.80;1.23;;;;;;;15.39;41.70;103029.88;10366606;28;20042;-73
2023/04/03 13:52:35;;;;;;;2.75;1.00;;;;;;;16.35;43.92;103113.31;10353986;28;20127;-76
2023/04/03 13:57:35;;;;;;;3.53;1.13;;;;;;;16.43;40.35;103062.91;10354556;28;20337;-74
2023/04/03 14:02:39;;;;;;;2.67;0.85;;;;;;;16.53;42.85;103079.00;10357625;28;20037;-75
2023/04/03 14:07:40;;;;;;;4.57;0.73;;;;;;;16.46;42.86;103068.00;10355972;28;20057;-74
2023/04/03 14:12:41;;;;;;;3.65;0.68;;;;;;;17.23;41.55;103078.13;10380151;28;20120;-68
2023/04/03 14:17:42;;;;;;;1.70;0.63;;;;;;;16.21;38.25;102942.31;10413468;28;20041;-74
2023/04/03 14:22:43;;;;;;;1.60;0.45;;;;;;;17.06;39.06;103014.03;10371686;28;20054;-75
2023/04/03 14:27:45;;;;;;;1.48;0.60;;;;;;;17.30;39.24;103061.28;10337302;28;20125;-75
2023/04/03 14:32:46;;;;;;;1.25;0.52;;;;;;;17.74;38.52;103051.31;10321842;28;20036;-74
2023/04/03 14:37:47;;;;;;;2.90;0.80;;;;;;;18.25;38.80;103057.00;10336835;28;20037;-76
2023/04/03 14:42:48;;;;;;;3.13;0.80;;;;;;;18.10;39.64;103062.28;10371437;28;20061;-78
2023/04/03 14:47:53;;;;;;;1.67;0.95;;;;;;;18.27;39.08;103043.63;10336777;28;20056;-76
2023/04/03 14:52:55;;;;;;;2.25;1.00;;;;;;;17.73;39.41;103054.34;10320229;28;20057;-70
2023/04/03 14:57:55;;;;;;;2.10;0.90;;;;;;;17.47;38.84;103039.94;10352866;28;20038;-71
2023/04/03 15:02:56;;;;;;;2.05;0.85;;;;;;;17.24;38.07;103035.28;10336512;28;20038;-76
2023/04/03 15:07:57;;;;;;;3.78;1.45;;;;;;;16.97;39.07;103035.00;10336106;28;20042;-72
2023/04/03 15:12:57;;;;;;;2.25;0.82;;;;;;;17.21;38.84;103027.41;10353759;28;20525;-73
2023/04/03 15:17:58;;;;;;;2.15;0.70;;;;;;;17.14;40.31;103029.50;10351881;28;20080;-74
2023/04/03 15:23:00;;;;;;;1.65;0.50;;;;;;;17.27;36.23;102983.84;10335853;28;20038;-73
2023/04/03 15:28:01;;;;;;;2.53;0.50;;;;;;;17.71;35.82;102996.09;10352607;28;20134;-75
2023/04/03 15:33:01;;;;;;;2.95;0.80;;;;;;;17.50;36.45;103002.38;10353110;28;20030;-75
2023/04/03 15:38:02;;;;;;;2.03;0.60;;;;;;;17.93;35.30;102992.59;10360094;28;20034;-75
2023/04/03 15:43:02;;;;;;;1.40;0.82;;;;;;;17.72;36.40;102994.16;10373083;28;20061;-71
2023/04/03 15:48:04;;;;;;;3.50;0.80;;;;;;;17.77;37.09;103005.38;10400057;28;20187;-72
2023/04/03 15:53:05;;;;;;;2.83;0.80;;;;;;;17.75;37.41;103002.84;10385245;28;20136;-72
2023/04/03 15:58:05;;;;;;;2.80;0.82;;;;;;;18.26;37.29;103007.63;10399135;28;20140;-72
2023/04/03 16:03:09;;;;;;;2.42;0.70;;;;;;;17.99;35.92;102997.16;10382969;28;20033;-72
2023/04/03 16:08:10;;;;;;;2.03;0.55;;;;;;;17.31;36.67;103001.75;10399813;28;20466;-73
2023/04/03 16:13:11;;;;;;;1.83;0.90;;;;;;;17.29;36.75;103010.31;10416035;28;20033;-76
2023/04/03 16:18:13;;;;;;;3.83;0.70;;;;;;;16.68;36.13;102998.72;10375496;28;20050;-73
2023/04/03 16:23:13;;;;;;;2.53;0.90;;;;;;;15.81;37.39;103004.09;10377526;28;20497;-75
2023/04/03 16:28:14;;;;;;;2.63;0.60;;;;;;;16.10;38.99;103005.97;10365763;28;20033;-75
2023/04/03 16:33:14;;;;;;;2.72;0.98;;;;;;;15.70;37.83;102981.56;10371615;28;20106;-75
2023/04/03 16:38:15;;;;;;;2.10;0.63;;;;;;;14.12;40.71;103002.69;10397274;28;20045;-75
2023/04/03 16:43:15;;;;;;;1.67;0.60;;;;;;;12.43;43.90;103015.81;10398293;28;20033;-75
2023/04/03 16:48:16;;;;;;;4.30;0.73;;;;;;;11.73;45.80;103009.81;10411982;28;20068;-75
2023/04/03 16:53:16;;;;;;;2.47;0.82;;;;;;;10.96;45.60;103026.53;10363762;28;20057;-75
2023/04/03 16:58:17;;;;;;;1.67;0.60;;;;;;;10.21;46.65;103034.50;10363891;28;20045;-74
2023/04/03 17:03:17;;;;;;;2.03;0.43;;;;;;;9.31;47.22;103033.16;10360471;28;20046;-75
2023/04/03 17:08:18;;;;;;;2.17;0.80;;;;;;;8.68;49.47;103054.69;10379490;28;20111;-74
2023/04/03 17:13:19;;;;;;;1.45;0.45;;;;;;;8.12;50.08;103052.28;10380715;28;20041;-74
2023/04/03 17:18:20;;;;;;;2.63;0.47;;;;;;;7.75;52.29;103080.50;10367800;28;20030;-75
2023/04/03 17:23:20;;;;;;;1.95;0.50;;;;;;;7.42;52.57;103080.69;10390451;28;20045;-74
2023/04/03 17:28:27;;;;;;;2.33;0.50;;;;;;;7.16;54.20;103086.47;10374246;28;20034;-76
2023/04/03 17:33:29;;;;;;;3.08;0.60;;;;;;;7.04;57.10;103100.53;10396297;28;20095;-74
2023/04/03 17:38:30;;;;;;;1.83;0.57;;;;;;;6.74;55.91;103087.63;10356573;28;20387;-74
2023/04/03 17:43:31;;;;;;;1.58;0.40;;;;;;;6.56;58.68;103099.63;10394663;28;20041;-74
2023/04/03 17:48:32;;;;;;;4.30;0.60;;;;;;;6.36;58.76;103092.81;10379061;28;20552;-75
2023/04/03 17:53:32;;;;;;;1.95;0.60;;;;;;;6.15;59.88;103087.84;10362644;28;20037;-75
2023/04/03 17:58:33;;;;;;;3.13;0.70;;;;;;;5.93;60.20;103082.00;10375608;28;20067;-75
2023/04/03 18:03:34;;;;;;;2.47;0.50;;;;;;;5.87;62.01;103107.28;10359914;28;20103;-75
2023/04/03 18:08:36;;;;;;;0.93;0.40;;;;;;;5.66;63.70;103108.63;10374150;28;20100;-75
2023/04/03 18:13:37;;;;;;;3.08;0.60;;;;;;;5.50;65.71;103113.16;10376241;28;20048;-75
2023/04/03 18:18:37;;;;;;;2.60;0.93;;;;;;;5.33;68.11;103124.00;10393330;28;20045;-77
2023/04/03 18:23:39;;;;;;;1.75;0.80;;;;;;;5.14;69.00;103127.88;10374778;28;20475;-75
2023/04/03 18:28:41;;;;;;;1.95;0.43;;;;;;;5.10;71.30;103126.47;10360434;28;20057;-75
2023/04/03 18:33:42;;;;;;;1.95;0.60;;;;;;;4.93;73.97;103125.53;10377878;28;20511;-76
2023/04/03 18:38:43;;;;;;;4.75;0.90;;;;;;;4.87;77.74;103142.56;10360684;28;20141;-72
2023/04/03 18:43:43;;;;;;;2.25;0.90;;;;;;;4.72;80.50;103142.28;10374774;28;20046;-75
2023/04/03 18:48:44;;;;;;;4.00;1.20;;;;;;;4.61;84.97;103148.00;10373727;28;20104;-75
2023/04/03 18:53:45;;;;;;;5.03;2.08;;;;;;;4.60;90.07;103152.59;10392429;28;20033;-76
2023/04/03 18:58:45;;;;;;;1.45;0.63;;;;;;;4.46;94.21;103144.97;10392176;28;20033;-75
2023/04/03 19:03:46;;;;;;;1.67;0.80;;;;;;;4.41;97.24;103153.66;10363245;28;20042;-76
2023/04/03 19:08:48;;;;;;;3.88;1.48;;;;;;;4.30;100.00;103142.13;10390433;28;20050;-71
2023/04/03 19:13:48;;;;;;;3.53;0.82;;;;;;;4.26;100.00;103171.59;10391769;28;20060;-73
2023/04/03 19:18:49;;;;;;;6.00;1.67;;;;;;;4.10;100.00;103158.66;10372661;28;20044;-76
2023/04/03 19:23:49;;;;;;;3.28;0.80;;;;;;;4.01;100.00;103167.75;10356688;28;20433;-76
2023/04/03 19:28:50;;;;;;;3.35;1.00;;;;;;;3.96;100.00;103175.53;10379580;28;20079;-76
2023/04/03 19:33:52;;;;;;;4.47;1.17;;;;;;;3.88;100.00;103168.13;10368494;28;20045;-75
2023/04/03 19:38:52;;;;;;;2.05;1.00;;;;;;;3.80;100.00;103157.13;10375512;28;20532;-75
2023/04/03 19:43:53;;;;;;;3.03;0.80;;;;;;;3.73;100.00;103159.63;10357105;28;20041;-76
2023/04/03 19:48:54;;;;;;;7.40;1.02;;;;;;;3.68;100.00;103167.41;10355651;28;20511;-75
2023/04/03 19:53:55;;;;;;;2.28;1.00;;;;;;;3.63;100.00;103180.59;10349503;28;20109;-75
2023/04/03 19:58:55;;;;;;;2.72;0.80;;;;;;;3.55;100.00;103166.88;10371730;28;20128;-75
2023/04/03 20:03:56;;;;;;;1.50;0.82;;;;;;;3.46;100.00;103146.03;10405252;28;20056;-73
2023/04/03 20:08:56;;;;;;;6.15;1.10;;;;;;;3.35;100.00;103139.75;10371580;28;20329;-75
2023/04/03 20:13:57;;;;;;;2.90;1.33;;;;;;;3.35;100.00;103147.06;10357038;28;20044;-75
2023/04/03 20:18:58;;;;;;;5.18;1.50;;;;;;;3.25;100.00;103133.50;10391099;28;20034;-76
2023/04/03 20:23:59;;;;;;;3.45;1.30;;;;;;;3.20;100.00;103142.13;10415240;28;20049;-76
2023/04/03 20:29:00;;;;;;;3.05;1.38;;;;;;;2.75;100.00;103098.44;10414161;28;20113;-76
2023/04/03 20:34:01;;;;;;;3.53;1.52;;;;;;;3.01;100.00;103143.03;10382053;28;20041;-76
2023/04/03 20:39:01;;;;;;;3.70;1.30;;;;;;;3.00;100.00;103137.75;10415780;28;20084;-76
2023/04/03 20:44:02;;;;;;;3.85;1.35;;;;;;;2.88;100.00;103115.31;10394397;28;20037;-75
2023/04/03 20:49:03;;;;;;;6.22;1.30;;;;;;;2.87;100.00;103124.47;10377160;28;20465;-77
2023/04/03 20:54:03;;;;;;;4.25;1.52;;;;;;;2.85;100.00;103136.50;10363161;28;20097;-75
2023/04/03 20:59:04;;;;;;;3.80;1.58;;;;;;;2.66;100.00;103104.78;10387170;28;20500;-76
2023/04/03 21:04:31;;;;;;;8.15;1.83;;;;;;;2.63;100.00;103106.78;10378348;28;20037;-75
2023/04/03 21:10:09;;;;;;;3.42;1.88;;;;;;;1.92;100.00;102986.75;10371828;28;20038;-76
2023/04/03 21:15:47;;;;;;;5.30;1.75;;;;;;;2.62;100.00;103117.81;10412064;28;20048;-76
2023/04/03 21:20:48;;;;;;;6.25;1.90;;;;;;;2.49;100.00;103115.41;10412917;28;20045;-75
2023/04/03 21:25:50;;;;;;;4.75;2.28;;;;;;;2.43;100.00;103124.16;10375778;28;20037;-77
2023/04/03 21:30:50;;;;;;;4.80;2.17;;;;;;;2.29;100.00;103103.69;10392799;28;20061;-76
2023/04/03 21:35:56;;;;;;;4.65;2.45;;;;;;;2.24;100.00;103121.47;10366179;28;20061;-75
2023/04/03 21:40:57;;;;;;;7.55;2.70;;;;;;;2.08;100.00;103112.00;10418437;28;20418;-76
2023/04/03 21:45:58;;;;;;;3.67;2.28;;;;;;;1.97;100.00;103106.72;10366650;28;20101;-75
2023/04/03 21:51:05;;;;;;;7.35;2.50;;;;;;;1.84;100.00;103108.84;10387890;28;20033;-75
2023/04/03 21:56:06;;;;;;;5.78;2.38;;;;;;;1.76;100.00;103117.72;10394944;28;20101;-75
2023/04/03 22:01:11;;;;;;;6.28;2.63;;;;;;;1.65;100.00;103125.97;10391634;28;20074;-75
2023/04/03 22:06:15;;;;;;;4.35;2.38;;;;;;;0.72;100.00;102987.75;10372160;28;20133;-75
2023/04/03 22:11:15;;;;;;;7.88;3.00;;;;;;;1.52;100.00;103115.38;10395478;28;20053;-76
2023/04/03 22:16:16;;;;;;;6.43;2.78;;;;;;;1.57;100.00;103118.53;10363135;28;20037;-76
2023/04/03 22:21:16;;;;;;;8.63;3.25;;;;;;;1.53;100.00;103117.09;10375950;28;20084;-75
2023/04/03 22:26:17;;;;;;;6.50;2.30;;;;;;;1.61;100.00;103125.38;10372043;28;20080;-75
2023/04/03 22:31:19;;;;;;;8.20;3.05;;;;;;;1.53;100.00;103122.50;10373818;28;20094;-76
2023/04/03 22:36:19;;;;;;;8.00;3.28;;;;;;;1.48;100.00;103122.09;10364502;28;20064;-75
2023/04/03 22:41:20;;;;;;;8.05;2.60;;;;;;;1.33;100.00;103099.91;10350114;28;20102;-75
2023/04/03 22:46:21;;;;;;;4.47;2.70;;;;;;;1.37;100.00;103113.06;10335723;28;20128;-76
2023/04/03 22:51:22;;;;;;;7.50;3.05;;;;;;;1.39;100.00;103121.91;10337455;28;20030;-75
2023/04/03 22:56:22;;;;;;;6.95;2.83;;;;;;;1.33;100.00;103111.63;10349226;28;20042;-75
2023/04/03 23:01:23;;;;;;;6.97;3.20;;;;;;;1.32;100.00;103099.03;10314932;28;20038;-74
2023/04/03 23:06:25;;;;;;;8.93;3.10;;;;;;;1.31;100.00;103102.75;10352256;28;20041;-76
2023/04/03 23:11:26;;;;;;;8.05;3.47;;;;;;;1.30;100.00;103106.47;10351501;28;20046;-75